sensor_id;sensor_type;location;lat;lon;timestamp;P1;P2;P0
80946;PMS5003;70403;50.226;8.564;2023-07-13T00:03:05;4.000000;4.000000;
80946;PMS5003;70403;50.226;8.564;2023-07-13T00:08:05;4.000000;4.000000;
80946;PMS5003;70403;50.226;8.564;2023-07-13T00:13:05;3.000000;3.000000;
80946;PMS5003;70403;50.226;8.564;2023-07-13T00:18:05;3.000000;3.000000;
80946;PMS5003;70403;50.226;8.564;2023-07-13T00:23:05;3.000000;3.000000;
80946;PMS5003;70403;50.226;8.564;2023-07-13T00:28:05;3.000000;2.000000;
80946;PMS5003;70403;50.226;8.564;2023-07-13T00:33:05;4.000000;4.000000;
80946;PMS5003;70403;50.226;8.564;2023-07-13T00:38:05;3.000000;3.000000;
80946;PMS5003;70403;50.226;8.564;2023-07-13T00:43:08;4.000000;4.000000;
80946;PMS5003;70403;50.226;8.564;2023-07-13T00:47:16;3.000000;3.000000;
80946;PMS5003;70403;50.226;8.564;2023-07-13T01:20:07;3.000000;3.000000;
80946;PMS5003;70403;50.226;8.564;2023-07-13T01:25:06;2.000000;2.000000;
80946;PMS5003;70403;50.226;8.564;2023-07-13T01:30:06;3.000000;3.000000;
80946;PMS5003;70403;50.226;8.564;2023-07-13T01:35:06;2.000000;2.000000;
80946;PMS5003;70403;50.226;8.564;2023-07-13T01:40:07;3.000000;3.000000;
80946;PMS5003;70403;50.226;8.564;2023-07-13T01:45:06;3.000000;3.000000;
80946;PMS5003;70403;50.226;8.564;2023-07-13T01:50:06;3.000000;3.000000;
80946;PMS5003;70403;50.226;8.564;2023-07-13T01:55:06;3.000000;3.000000;
80946;PMS5003;70403;50.226;8.564;2023-07-13T02:00:08;3.000000;3.000000;
80946;PMS5003;70403;50.226;8.564;2023-07-13T02:05:07;4.000000;4.000000;
80946;PMS5003;70403;50.226;8.564;2023-07-13T02:10:07;2.000000;2.000000;
80946;PMS5003;70403;50.226;8.564;2023-07-13T02:15:07;3.000000;3.000000;
80946;PMS5003;70403;50.226;8.564;2023-07-13T02:20:07;2.000000;2.000000;
80946;PMS5003;70403;50.226;8.564;2023-07-13T02:25:06;3.000000;3.000000;
80946;PMS5003;70403;50.226;8.564;2023-07-13T02:30:07;2.000000;2.000000;
80946;PMS5003;70403;50.226;8.564;2023-07-13T02:35:07;3.000000;3.000000;
80946;PMS5003;70403;50.226;8.564;2023-07-13T02:40:07;2.000000;2.000000;
80946;PMS5003;70403;50.226;8.564;2023-07-13T02:45:07;2.000000;2.000000;
80946;PMS5003;70403;50.226;8.564;2023-07-13T02:50:07;2.000000;1.000000;
80946;PMS5003;70403;50.226;8.564;2023-07-13T02:55:06;1.000000;1.000000;
80946;PMS5003;70403;50.226;8.564;2023-07-13T03:00:07;2.000000;2.000000;
80946;PMS5003;70403;50.226;8.564;2023-07-13T03:05:06;3.000000;2.000000;
80946;PMS5003;70403;50.226;8.564;2023-07-13T03:10:06;3.000000;2.000000;
80946;PMS5003;70403;50.226;8.564;2023-07-13T03:15:06;2.000000;2.000000;
80946;PMS5003;70403;50.226;8.564;2023-07-13T03:20:07;2.000000;2.000000;
80946;PMS5003;70403;50.226;8.564;2023-07-13T03:25:06;2.000000;2.000000;
80946;PMS5003;70403;50.226;8.564;2023-07-13T03:30:07;2.000000;2.000000;
80946;PMS5003;70403;50.226;8.564;2023-07-13T03:35:07;2.000000;2.000000;
80946;PMS5003;70403;50.226;8.564;2023-07-13T03:40:06;2.000000;2.000000;
80946;PMS5003;70403;50.226;8.564;2023-07-13T03:45:07;2.000000;2.000000;
80946;PMS5003;70403;50.226;8.564;2023-07-13T03:50:06;2.000000;2.000000;
80946;PMS5003;70403;50.226;8.564;2023-07-13T03:55:06;2.000000;2.000000;
80946;PMS5003;70403;50.226;8.564;2023-07-13T04:00:07;2.000000;2.000000;
80946;PMS5003;70403;50.226;8.564;2023-07-13T04:05:06;2.000000;2.000000;
80946;PMS5003;70403;50.226;8.564;2023-07-13T04:10:06;2.000000;2.000000;
80946;PMS5003;70403;50.226;8.564;2023-07-13T04:15:07;2.000000;2.000000;
80946;PMS5003;70403;50.226;8.564;2023-07-13T04:20:06;2.000000;2.000000;
80946;PMS5003;70403;50.226;8.564;2023-07-13T04:25:07;2.000000;2.000000;
80946;PMS5003;70403;50.226;8.564;2023-07-13T04:30:07;5.000000;5.000000;
80946;PMS5003;70403;50.226;8.564;2023-07-13T04:35:07;3.000000;3.000000;
80946;PMS5003;70403;50.226;8.564;2023-07-13T04:40:06;2.000000;2.000000;
80946;PMS5003;70403;50.226;8.564;2023-07-13T04:45:06;2.000000;2.000000;
80946;PMS5003;70403;50.226;8.564;2023-07-13T04:50:07;2.000000;1.000000;
80946;PMS5003;70403;50.226;8.564;2023-07-13T04:55:07;3.000000;3.000000;
80946;PMS5003;70403;50.226;8.564;2023-07-13T05:00:07;2.000000;2.000000;
80946;PMS5003;70403;50.226;8.564;2023-07-13T05:05:06;2.000000;2.000000;
80946;PMS5003;70403;50.226;8.564;2023-07-13T05:10:07;3.000000;3.000000;
80946;PMS5003;70403;50.226;8.564;2023-07-13T05:15:06;2.000000;2.000000;
80946;PMS5003;70403;50.226;8.564;2023-07-13T05:20:06;2.000000;2.000000;
80946;PMS5003;70403;50.226;8.564;2023-07-13T05:25:06;1.000000;1.000000;
80946;PMS5003;70403;50.226;8.564;2023-07-13T05:30:06;2.000000;2.000000;
80946;PMS5003;70403;50.226;8.564;2023-07-13T05:35:06;2.000000;2.000000;
80946;PMS5003;70403;50.226;8.564;2023-07-13T05:40:06;2.000000;2.000000;
80946;PMS5003;70403;50.226;8.564;2023-07-13T05:45:06;2.000000;2.000000;
80946;PMS5003;70403;50.226;8.564;2023-07-13T05:50:07;2.000000;1.000000;
80946;PMS5003;70403;50.226;8.564;2023-07-13T05:55:06;1.000000;1.000000;
80946;PMS5003;70403;50.226;8.564;2023-07-13T06:00:07;2.000000;2.000000;
80946;PMS5003;70403;50.226;8.564;2023-07-13T06:05:06;1.000000;1.000000;
80946;PMS5003;70403;50.226;8.564;2023-07-13T06:10:06;1.000000;1.000000;
80946;PMS5003;70403;50.226;8.564;2023-07-13T06:15:07;2.000000;2.000000;
80946;PMS5003;70403;50.226;8.564;2023-07-13T06:20:07;1.000000;1.000000;
80946;PMS5003;70403;50.226;8.564;2023-07-13T06:25:06;1.000000;1.000000;
80946;PMS5003;70403;50.226;8.564;2023-07-13T06:30:06;2.000000;2.000000;
80946;PMS5003;70403;50.226;8.564;2023-07-13T06:35:06;1.000000;1.000000;
80946;PMS5003;70403;50.226;8.564;2023-07-13T06:40:07;2.000000;2.000000;
80946;PMS5003;70403;50.226;8.564;2023-07-13T06:45:06;1.000000;1.000000;
80946;PMS5003;70403;50.226;8.564;2023-07-13T06:50:06;2.000000;1.000000;
80946;PMS5003;70403;50.226;8.564;2023-07-13T06:55:06;2.000000;2.000000;
80946;PMS5003;70403;50.226;8.564;2023-07-13T07:00:07;1.000000;1.000000;
80946;PMS5003;70403;50.226;8.564;2023-07-13T07:05:06;1.000000;1.000000;
80946;PMS5003;70403;50.226;8.564;2023-07-13T07:10:07;1.000000;1.000000;
80946;PMS5003;70403;50.226;8.564;2023-07-13T07:15:06;0.000000;0.000000;
80946;PMS5003;70403;50.226;8.564;2023-07-13T07:20:07;1.000000;1.000000;
80946;PMS5003;70403;50.226;8.564;2023-07-13T07:25:06;1.000000;1.000000;
80946;PMS5003;70403;50.226;8.564;2023-07-13T07:30:07;1.000000;1.000000;
80946;PMS5003;70403;50.226;8.564;2023-07-13T07:35:07;1.000000;1.000000;
80946;PMS5003;70403;50.226;8.564;2023-07-13T07:40:07;1.000000;1.000000;
80946;PMS5003;70403;50.226;8.564;2023-07-13T07:45:07;2.000000;2.000000;
80946;PMS5003;70403;50.226;8.564;2023-07-13T07:50:06;1.000000;1.000000;
80946;PMS5003;70403;50.226;8.564;2023-07-13T07:55:07;1.000000;1.000000;
80946;PMS5003;70403;50.226;8.564;2023-07-13T08:00:07;1.000000;1.000000;
80946;PMS5003;70403;50.226;8.564;2023-07-13T08:05:06;1.000000;1.000000;
80946;PMS5003;70403;50.226;8.564;2023-07-13T08:10:07;2.000000;2.000000;
80946;PMS5003;70403;50.226;8.564;2023-07-13T08:15:08;1.000000;1.000000;
80946;PMS5003;70403;50.226;8.564;2023-07-13T08:20:07;2.000000;2.000000;
80946;PMS5003;70403;50.226;8.564;2023-07-13T08:25:06;2.000000;2.000000;
80946;PMS5003;70403;50.226;8.564;2023-07-13T08:30:06;2.000000;2.000000;
80946;PMS5003;70403;50.226;8.564;2023-07-13T08:35:06;2.000000;2.000000;
80946;PMS5003;70403;50.226;8.564;2023-07-13T08:40:07;1.000000;1.000000;
80946;PMS5003;70403;50.226;8.564;2023-07-13T08:49:46;1.000000;1.000000;
80946;PMS5003;70403;50.226;8.564;2023-07-13T08:54:47;1.000000;1.000000;
80946;PMS5003;70403;50.226;8.564;2023-07-13T08:59:46;1.000000;1.000000;
80946;PMS5003;70403;50.226;8.564;2023-07-13T09:04:48;1.000000;1.000000;
80946;PMS5003;70403;50.226;8.564;2023-07-13T09:09:49;1.000000;1.000000;
80946;PMS5003;70403;50.226;8.564;2023-07-13T09:14:04;1.000000;1.000000;
80946;PMS5003;70403;50.226;8.564;2023-07-13T09:33:52;0.000000;0.000000;
80946;PMS5003;70403;50.226;8.564;2023-07-13T09:38:56;1.000000;1.000000;
80946;PMS5003;70403;50.226;8.564;2023-07-13T09:42:47;1.000000;1.000000;
80946;PMS5003;70403;50.226;8.564;2023-07-13T09:51:34;2.000000;2.000000;
80946;PMS5003;70403;50.226;8.564;2023-07-13T09:56:34;2.000000;2.000000;
80946;PMS5003;70403;50.226;8.564;2023-07-13T10:01:35;2.000000;2.000000;
80946;PMS5003;70403;50.226;8.564;2023-07-13T10:06:34;1.000000;1.000000;
80946;PMS5003;70403;50.226;8.564;2023-07-13T10:11:34;2.000000;2.000000;
80946;PMS5003;70403;50.226;8.564;2023-07-13T10:16:34;2.000000;2.000000;
80946;PMS5003;70403;50.226;8.564;2023-07-13T10:21:35;1.000000;1.000000;
80946;PMS5003;70403;50.226;8.564;2023-07-13T10:26:34;2.000000;2.000000;
80946;PMS5003;70403;50.226;8.564;2023-07-13T10:31:34;1.000000;1.000000;
80946;PMS5003;70403;50.226;8.564;2023-07-13T10:36:36;1.000000;1.000000;
80946;PMS5003;70403;50.226;8.564;2023-07-13T10:41:17;3.000000;3.000000;
80946;PMS5003;70403;50.226;8.564;2023-07-13T10:46:17;2.000000;2.000000;
80946;PMS5003;70403;50.226;8.564;2023-07-13T10:51:17;1.000000;1.000000;
80946;PMS5003;70403;50.226;8.564;2023-07-13T11:01:14;2.000000;2.000000;
80946;PMS5003;70403;50.226;8.564;2023-07-13T11:18:28;2.000000;2.000000;
80946;PMS5003;70403;50.226;8.564;2023-07-13T11:23:30;2.000000;2.000000;
80946;PMS5003;70403;50.226;8.564;2023-07-13T11:28:30;3.000000;2.000000;
80946;PMS5003;70403;50.226;8.564;2023-07-13T11:33:49;2.000000;2.000000;
80946;PMS5003;70403;50.226;8.564;2023-07-13T11:37:25;2.000000;2.000000;
80946;PMS5003;70403;50.226;8.564;2023-07-13T11:42:24;2.000000;2.000000;
80946;PMS5003;70403;50.226;8.564;2023-07-13T11:47:24;2.000000;2.000000;
80946;PMS5003;70403;50.226;8.564;2023-07-13T11:52:26;2.000000;2.000000;
80946;PMS5003;70403;50.226;8.564;2023-07-13T11:57:11;2.000000;2.000000;
80946;PMS5003;70403;50.226;8.564;2023-07-13T12:00:51;1.000000;1.000000;
80946;PMS5003;70403;50.226;8.564;2023-07-13T12:08:57;nan;nan;
80946;PMS5003;70403;50.226;8.564;2023-07-13T12:18:34;3.000000;3.000000;
80946;PMS5003;70403;50.226;8.564;2023-07-13T12:23:34;6.000000;6.000000;
80946;PMS5003;70403;50.226;8.564;2023-07-13T12:28:35;9.000000;9.000000;
80946;PMS5003;70403;50.226;8.564;2023-07-13T12:33:34;9.000000;9.000000;
80946;PMS5003;70403;50.226;8.564;2023-07-13T12:38:34;4.000000;4.000000;
80946;PMS5003;70403;50.226;8.564;2023-07-13T12:43:35;7.000000;7.000000;
80946;PMS5003;70403;50.226;8.564;2023-07-13T12:53:29;4.000000;4.000000;
80946;PMS5003;70403;50.226;8.564;2023-07-13T12:58:26;4.000000;3.000000;
80946;PMS5003;70403;50.226;8.564;2023-07-13T13:03:29;3.000000;2.000000;
80946;PMS5003;70403;50.226;8.564;2023-07-13T13:08:26;2.000000;2.000000;
80946;PMS5003;70403;50.226;8.564;2023-07-13T13:13:26;2.000000;2.000000;
80946;PMS5003;70403;50.226;8.564;2023-07-13T13:18:26;2.000000;1.000000;
80946;PMS5003;70403;50.226;8.564;2023-07-13T13:23:26;2.000000;2.000000;
80946;PMS5003;70403;50.226;8.564;2023-07-13T13:28:26;2.000000;2.000000;
80946;PMS5003;70403;50.226;8.564;2023-07-13T13:33:26;2.000000;2.000000;
80946;PMS5003;70403;50.226;8.564;2023-07-13T13:38:27;3.000000;3.000000;
80946;PMS5003;70403;50.226;8.564;2023-07-13T13:43:26;2.000000;2.000000;
80946;PMS5003;70403;50.226;8.564;2023-07-13T13:48:28;2.000000;2.000000;
80946;PMS5003;70403;50.226;8.564;2023-07-13T13:53:26;2.000000;2.000000;
80946;PMS5003;70403;50.226;8.564;2023-07-13T13:58:26;2.000000;2.000000;
80946;PMS5003;70403;50.226;8.564;2023-07-13T14:03:26;2.000000;2.000000;
80946;PMS5003;70403;50.226;8.564;2023-07-13T14:08:26;3.000000;3.000000;
80946;PMS5003;70403;50.226;8.564;2023-07-13T14:13:39;4.000000;4.000000;
80946;PMS5003;70403;50.226;8.564;2023-07-13T14:17:33;3.000000;3.000000;
80946;PMS5003;70403;50.226;8.564;2023-07-13T14:22:33;3.000000;3.000000;
80946;PMS5003;70403;50.226;8.564;2023-07-13T14:27:34;2.000000;2.000000;
80946;PMS5003;70403;50.226;8.564;2023-07-13T14:32:33;2.000000;2.000000;
80946;PMS5003;70403;50.226;8.564;2023-07-13T14:37:33;3.000000;2.000000;
80946;PMS5003;70403;50.226;8.564;2023-07-13T14:42:33;2.000000;2.000000;
80946;PMS5003;70403;50.226;8.564;2023-07-13T14:47:33;2.000000;2.000000;
80946;PMS5003;70403;50.226;8.564;2023-07-13T14:52:33;2.000000;2.000000;
80946;PMS5003;70403;50.226;8.564;2023-07-13T14:57:33;3.000000;3.000000;
80946;PMS5003;70403;50.226;8.564;2023-07-13T15:02:34;3.000000;3.000000;
80946;PMS5003;70403;50.226;8.564;2023-07-13T15:07:33;2.000000;2.000000;
80946;PMS5003;70403;50.226;8.564;2023-07-13T15:12:33;2.000000;2.000000;
80946;PMS5003;70403;50.226;8.564;2023-07-13T15:17:35;3.000000;3.000000;
80946;PMS5003;70403;50.226;8.564;2023-07-13T15:22:33;4.000000;4.000000;
80946;PMS5003;70403;50.226;8.564;2023-07-13T15:27:33;3.000000;3.000000;
80946;PMS5003;70403;50.226;8.564;2023-07-13T15:32:33;3.000000;3.000000;
80946;PMS5003;70403;50.226;8.564;2023-07-13T15:37:33;3.000000;3.000000;
80946;PMS5003;70403;50.226;8.564;2023-07-13T15:42:33;2.000000;2.000000;
80946;PMS5003;70403;50.226;8.564;2023-07-13T15:47:33;3.000000;3.000000;
80946;PMS5003;70403;50.226;8.564;2023-07-13T15:52:34;3.000000;3.000000;
80946;PMS5003;70403;50.226;8.564;2023-07-13T15:57:33;3.000000;3.000000;
80946;PMS5003;70403;50.226;8.564;2023-07-13T16:02:33;3.000000;3.000000;
80946;PMS5003;70403;50.226;8.564;2023-07-13T16:07:33;2.000000;2.000000;
80946;PMS5003;70403;50.226;8.564;2023-07-13T16:12:33;1.000000;1.000000;
80946;PMS5003;70403;50.226;8.564;2023-07-13T16:17:33;2.000000;2.000000;
80946;PMS5003;70403;50.226;8.564;2023-07-13T16:22:33;1.000000;1.000000;
80946;PMS5003;70403;50.226;8.564;2023-07-13T16:27:33;3.000000;3.000000;
80946;PMS5003;70403;50.226;8.564;2023-07-13T16:32:33;1.000000;1.000000;
80946;PMS5003;70403;50.226;8.564;2023-07-13T16:37:34;4.000000;4.000000;
80946;PMS5003;70403;50.226;8.564;2023-07-13T16:42:33;3.000000;3.000000;
80946;PMS5003;70403;50.226;8.564;2023-07-13T16:47:33;3.000000;3.000000;
80946;PMS5003;70403;50.226;8.564;2023-07-13T16:52:33;3.000000;3.000000;
80946;PMS5003;70403;50.226;8.564;2023-07-13T16:57:33;3.000000;3.000000;
80946;PMS5003;70403;50.226;8.564;2023-07-13T17:02:34;2.000000;2.000000;
80946;PMS5003;70403;50.226;8.564;2023-07-13T17:07:33;3.000000;3.000000;
80946;PMS5003;70403;50.226;8.564;2023-07-13T17:12:33;2.000000;2.000000;
80946;PMS5003;70403;50.226;8.564;2023-07-13T17:17:34;1.000000;1.000000;
80946;PMS5003;70403;50.226;8.564;2023-07-13T17:22:33;2.000000;2.000000;
80946;PMS5003;70403;50.226;8.564;2023-07-13T17:27:33;3.000000;3.000000;
80946;PMS5003;70403;50.226;8.564;2023-07-13T17:32:33;2.000000;2.000000;
80946;PMS5003;70403;50.226;8.564;2023-07-13T17:37:33;1.000000;1.000000;
80946;PMS5003;70403;50.226;8.564;2023-07-13T17:42:33;3.000000;3.000000;
80946;PMS5003;70403;50.226;8.564;2023-07-13T17:47:34;2.000000;2.000000;
80946;PMS5003;70403;50.226;8.564;2023-07-13T17:52:33;2.000000;2.000000;
80946;PMS5003;70403;50.226;8.564;2023-07-13T17:57:33;3.000000;3.000000;
80946;PMS5003;70403;50.226;8.564;2023-07-13T18:02:33;2.000000;2.000000;
80946;PMS5003;70403;50.226;8.564;2023-07-13T18:07:33;3.000000;3.000000;
80946;PMS5003;70403;50.226;8.564;2023-07-13T18:12:33;3.000000;3.000000;
80946;PMS5003;70403;50.226;8.564;2023-07-13T18:17:33;2.000000;2.000000;
80946;PMS5003;70403;50.226;8.564;2023-07-13T18:22:33;2.000000;2.000000;
80946;PMS5003;70403;50.226;8.564;2023-07-13T18:27:34;2.000000;2.000000;
80946;PMS5003;70403;50.226;8.564;2023-07-13T18:32:33;2.000000;2.000000;
80946;PMS5003;70403;50.226;8.564;2023-07-13T18:37:33;2.000000;2.000000;
80946;PMS5003;70403;50.226;8.564;2023-07-13T18:42:33;2.000000;2.000000;
80946;PMS5003;70403;50.226;8.564;2023-07-13T18:47:33;3.000000;3.000000;
80946;PMS5003;70403;50.226;8.564;2023-07-13T18:52:33;3.000000;3.000000;
80946;PMS5003;70403;50.226;8.564;2023-07-13T18:57:33;3.000000;3.000000;
80946;PMS5003;70403;50.226;8.564;2023-07-13T19:02:33;3.000000;3.000000;
80946;PMS5003;70403;50.226;8.564;2023-07-13T19:07:33;3.000000;3.000000;
80946;PMS5003;70403;50.226;8.564;2023-07-13T19:12:33;2.000000;2.000000;
80946;PMS5003;70403;50.226;8.564;2023-07-13T19:17:34;2.000000;2.000000;
80946;PMS5003;70403;50.226;8.564;2023-07-13T19:22:33;2.000000;2.000000;
80946;PMS5003;70403;50.226;8.564;2023-07-13T19:27:33;3.000000;3.000000;
80946;PMS5003;70403;50.226;8.564;2023-07-13T19:32:34;3.000000;3.000000;
80946;PMS5003;70403;50.226;8.564;2023-07-13T19:37:34;2.000000;2.000000;
80946;PMS5003;70403;50.226;8.564;2023-07-13T19:42:33;5.000000;5.000000;
80946;PMS5003;70403;50.226;8.564;2023-07-13T19:47:33;2.000000;2.000000;
80946;PMS5003;70403;50.226;8.564;2023-07-13T19:52:33;3.000000;2.000000;
80946;PMS5003;70403;50.226;8.564;2023-07-13T19:57:33;3.000000;3.000000;
80946;PMS5003;70403;50.226;8.564;2023-07-13T20:02:34;2.000000;2.000000;
80946;PMS5003;70403;50.226;8.564;2023-07-13T20:07:34;3.000000;3.000000;
80946;PMS5003;70403;50.226;8.564;2023-07-13T20:12:35;4.000000;4.000000;
80946;PMS5003;70403;50.226;8.564;2023-07-13T20:17:34;2.000000;2.000000;
80946;PMS5003;70403;50.226;8.564;2023-07-13T20:22:33;3.000000;3.000000;
80946;PMS5003;70403;50.226;8.564;2023-07-13T20:27:34;3.000000;3.000000;
80946;PMS5003;70403;50.226;8.564;2023-07-13T20:32:34;3.000000;3.000000;
80946;PMS5003;70403;50.226;8.564;2023-07-13T20:37:37;3.000000;3.000000;
80946;PMS5003;70403;50.226;8.564;2023-07-13T20:42:25;3.000000;3.000000;
80946;PMS5003;70403;50.226;8.564;2023-07-13T21:15:05;nan;nan;
80946;PMS5003;70403;50.226;8.564;2023-07-13T21:23:43;2.000000;2.000000;
80946;PMS5003;70403;50.226;8.564;2023-07-13T21:28:43;4.000000;3.000000;
80946;PMS5003;70403;50.226;8.564;2023-07-13T21:33:43;3.000000;3.000000;
80946;PMS5003;70403;50.226;8.564;2023-07-13T21:38:43;3.000000;2.000000;
80946;PMS5003;70403;50.226;8.564;2023-07-13T21:43:43;3.000000;3.000000;
80946;PMS5003;70403;50.226;8.564;2023-07-13T21:48:43;1.000000;1.000000;
80946;PMS5003;70403;50.226;8.564;2023-07-13T21:53:43;3.000000;3.000000;
80946;PMS5003;70403;50.226;8.564;2023-07-13T21:58:43;3.000000;3.000000;
80946;PMS5003;70403;50.226;8.564;2023-07-13T22:03:43;3.000000;3.000000;
80946;PMS5003;70403;50.226;8.564;2023-07-13T22:08:43;3.000000;3.000000;
80946;PMS5003;70403;50.226;8.564;2023-07-13T22:13:43;5.000000;4.000000;
80946;PMS5003;70403;50.226;8.564;2023-07-13T22:18:43;3.000000;3.000000;
80946;PMS5003;70403;50.226;8.564;2023-07-13T22:23:43;2.000000;2.000000;
80946;PMS5003;70403;50.226;8.564;2023-07-13T22:28:44;3.000000;3.000000;
80946;PMS5003;70403;50.226;8.564;2023-07-13T22:33:43;3.000000;3.000000;
80946;PMS5003;70403;50.226;8.564;2023-07-13T22:38:43;4.000000;4.000000;
80946;PMS5003;70403;50.226;8.564;2023-07-13T22:43:43;2.000000;2.000000;
80946;PMS5003;70403;50.226;8.564;2023-07-13T22:48:44;3.000000;3.000000;
80946;PMS5003;70403;50.226;8.564;2023-07-13T22:53:43;4.000000;4.000000;
80946;PMS5003;70403;50.226;8.564;2023-07-13T22:58:43;4.000000;4.000000;
80946;PMS5003;70403;50.226;8.564;2023-07-13T23:03:43;3.000000;3.000000;
80946;PMS5003;70403;50.226;8.564;2023-07-13T23:08:43;3.000000;3.000000;
80946;PMS5003;70403;50.226;8.564;2023-07-13T23:13:43;3.000000;3.000000;
80946;PMS5003;70403;50.226;8.564;2023-07-13T23:18:43;3.000000;3.000000;
80946;PMS5003;70403;50.226;8.564;2023-07-13T23:23:43;4.000000;4.000000;
80946;PMS5003;70403;50.226;8.564;2023-07-13T23:28:44;4.000000;4.000000;
80946;PMS5003;70403;50.226;8.564;2023-07-13T23:33:43;3.000000;3.000000;
80946;PMS5003;70403;50.226;8.564;2023-07-13T23:38:43;5.000000;4.000000;
80946;PMS5003;70403;50.226;8.564;2023-07-13T23:43:43;4.000000;4.000000;
80946;PMS5003;70403;50.226;8.564;2023-07-13T23:48:43;5.000000;4.000000;
80946;PMS5003;70403;50.226;8.564;2023-07-13T23:53:43;4.000000;4.000000;
80946;PMS5003;70403;50.226;8.564;2023-07-13T23:58:43;4.000000;4.000000;
